Latest Weather Observations for East Sale

IDV60801

Issued at 8:02 am EST Tuesday 5 May 2015 (issued every 30 minutes, with the page automatically refreshed every 10 minutes)

About weather observations | Map of weather stations | Latest weather observations for VIC | Other Formats
Station Details ID: 085072 Name: EAST SALE AIRPORT Lat: -38.12 Lon: 147.13 Height: 4.6 m
Data from the previous 72 hours. | See also: Recent months at East Sale
Date/Time
EST
Temp
°C
App
Temp
°C
Dew
Point
Rel
Hum
%
Delta-T
°C
Wind Press
QNH
hPa
Press
MSL
hPa
Rain
since 9 am
mm
Dir
 
Spd
km/h
Gust
km/h
Spd
kts
Gust
kts
05/07:30am 12.5 - - - - NNW 9 13 5 7 1000.0 1000.0 0.0
05/07:00am 10.9 - - - - CALM 0 0 0 0 1001.3 1001.3 0.0
05/06:30am 9.2 - - - - ESE 6 9 3 5 1000.9 1000.9 0.0
05/06:00am 9.6 - - - - SE 6 11 3 6 1000.9 1000.9 0.0
05/05:30am 10.6 - - - - S 9 13 5 7 1001.5 1001.5 0.0
05/05:00am 11.2 - - - - SSW 11 15 6 8 1001.2 1001.2 0.0
05/04:30am 11.0 - - - - S 7 11 4 6 1001.2 1001.2 0.0
05/04:00am 10.1 - - - - NE 7 11 4 6 1001.6 1001.6 0.0
05/03:30am 10.1 - - - - NE 13 15 7 8 1002.1 1002.1 0.0
05/03:00am 10.4 - - - - NE 7 11 4 6 1003.3 1003.3 0.0
05/02:30am 10.7 - - - - NE 2 9 1 5 1003.6 1003.6 0.0
05/02:23am 10.2 - - - - NE 7 11 4 6 1003.8 1003.8 0.0
05/02:00am 10.4 - - - - WNW 6 11 3 6 1003.9 1003.9 0.0
05/01:30am 10.1 - - - - WNW 9 11 5 6 1004.3 1004.3 0.0
05/01:21am 9.9 - - - - WNW 7 13 4 7 1004.2 1004.2 0.0
05/01:13am 9.2 - - - - WNW 4 13 2 7 1004.2 1004.2 0.0
05/01:00am 10.2 - - - - W 6 9 3 5 1004.1 1004.1 0.0
05/12:46am 10.0 - - - - SSW 6 9 3 5 1004.3 1004.3 0.0
05/12:30am 10.5 - - - - SSW 13 15 7 8 1004.1 1004.1 0.0
05/12:29am 10.5 - - - - SSW 13 15 7 8 1004.2 1004.2 0.0
05/12:27am 10.6 - - - - SSW 11 15 6 8 1004.2 1004.2 0.0
05/12:00am 8.8 - - - - E 6 9 3 5 1004.6 1004.6 0.0
 
Date/Time
EST
Temp
°C
App
Temp
°C
Dew
Point
Rel
Hum
%
Delta-T
°C
Wind Press
QNH
hPa
Press
MSL
hPa
Rain
since 9 am
mm
Dir
 
Spd
km/h
Gust
km/h
Spd
kts
Gust
kts
04/11:30pm 9.2 - - - - E 9 11 5 6 1005.3 1005.3 0.0
04/11:05pm 9.9 - - - - E 9 11 5 6 1005.6 1005.6 0.0
04/11:00pm 8.9 - - - - ENE 9 11 5 6 1005.6 1005.6 0.0
04/10:30pm 10.0 - - - - NNE 2 6 1 3 1006.5 1006.5 0.0
04/10:00pm 9.3 - - - - NNE 6 7 3 4 1007.1 1007.1 0.0
04/09:30pm 11.0 - - - - ENE 6 7 3 4 1007.4 1007.4 0.0
04/09:27pm 11.0 - - - - ENE 6 9 3 5 1007.6 1007.6 0.0
04/09:20pm 11.3 - - - - E 9 11 5 6 1007.8 1007.8 0.0
04/09:03pm 11.5 - - - - E 11 13 6 7 1008.0 1008.0 0.0
04/09:00pm 11.3 - - - - E 11 11 6 6 1008.1 1008.1 0.0
04/08:30pm 11.9 - - - - ENE 9 13 5 7 1008.6 1008.6 0.0
04/08:00pm 11.8 - - - - E 9 11 5 6 1009.0 1009.0 0.0
04/07:30pm 12.4 - - - - E 11 13 6 7 1009.4 1009.4 0.0
04/07:00pm 13.1 - - - - SE 7 9 4 5 1009.9 1009.9 0.0
04/06:30pm 13.5 - - - - E 13 15 7 8 1009.9 1009.9 0.0
04/06:00pm 14.5 - - - - E 13 15 7 8 1009.9 1009.9 0.0
04/05:30pm 14.6 - - - - ENE 19 20 10 11 1009.8 1009.8 0.0
04/05:00pm 15.9 - - - - E 15 17 8 9 1010.1 1010.1 0.0
04/04:30pm 17.2 - - - - ESE 13 17 7 9 1010.4 1010.4 0.0
04/04:00pm 17.7 - - - - E 15 19 8 10 1010.5 1010.5 0.0
04/03:30pm 17.5 - - - - E 11 13 6 7 1010.8 1010.8 0.0
04/03:00pm 17.9 - - - - E 9 15 5 8 1011.2 1011.2 0.0
04/02:30pm 18.0 - - - - ENE 13 15 7 8 1011.3 1011.3 0.0
04/02:00pm 17.6 - - - - E 9 11 5 6 1011.8 1011.8 0.0
04/01:30pm 17.2 - - - - NE 7 13 4 7 1012.3 1012.3 0.0
04/01:00pm 16.9 - - - - NNE 6 7 3 4 1012.9 1012.9 0.0
04/12:30pm 14.7 - - - - N 6 7 3 4 1013.6 1013.6 0.0
04/12:17pm 14.4 - - - - NNW 6 9 3 5 1013.9 1013.9 0.0
04/12:00pm 13.4 - - - - NW 6 9 3 5 1014.1 1014.1 0.0
04/11:53am 13.3 - - - - WNW 6 7 3 4 1014.3 1014.3 0.0
04/11:48am 13.1 - - - - WNW 6 7 3 4 1014.4 1014.4 0.0
04/11:42am 13.2 - - - - W 4 9 2 5 1014.6 1014.6 0.0
04/11:30am 13.1 - - - - WSW 7 11 4 6 1014.8 1014.8 0.0
04/11:00am 12.8 - - - - WNW 9 11 5 6 1015.0 1015.0 0.0
04/10:30am 12.7 - - - - WNW 9 11 5 6 1015.2 1015.2 0.0
04/10:00am 12.4 - - - - WNW 9 13 5 7 1015.7 1015.7 0.0
04/09:30am 12.2 - - - - WNW 7 11 4 6 1016.0 1016.0 0.0
04/09:00am 11.7 - - - - W 7 9 4 5 1016.3 1016.3 0.2
04/08:30am 11.5 - - - - CALM 0 6 0 3 1016.2 1016.2 0.2
04/08:00am 11.0 - - - - CALM 0 0 0 0 1016.1 1016.1 0.2
04/07:49am 10.6 - - - - CALM 0 0 0 0 1015.9 1015.9 0.2
04/07:39am 10.4 - - - - WSW 4 6 2 3 1015.9 1015.9 0.2
04/07:32am 10.3 - - - - WSW 4 7 2 4 1016.0 1016.0 0.2
04/07:30am 10.3 - - - - WSW 2 7 1 4 1016.0 1016.0 0.2
04/07:00am 9.9 - - - - SW 7 9 4 5 1016.0 1016.0 0.2
04/06:41am 9.3 - - - - CALM 0 0 0 0 1015.6 1015.6 0.2
04/06:36am 9.3 - - - - CALM 0 0 0 0 1015.5 1015.5 0.2
04/06:30am 9.2 - - - - CALM 0 4 0 2 1015.5 1015.5 0.2
04/06:00am 8.4 - - - - WNW 7 9 4 5 1016.0 1016.0 0.2
04/05:30am 7.7 - - - - WNW 7 9 4 5 1016.0 1016.0 0.2
04/05:00am 7.0 - - - - NW 2 7 1 4 1016.2 1016.2 0.2
04/04:33am 7.1 - - - - CALM 0 0 0 0 1016.1 1016.1 0.2
04/04:30am 7.2 - - - - CALM 0 0 0 0 1016.1 1016.1 0.2
04/04:00am 7.9 - - - - CALM 0 0 0 0 1016.4 1016.4 0.2
04/03:30am 7.6 - - - - N 7 7 4 4 1016.4 1016.4 0.2
04/03:00am 7.9 - - - - NNW 6 6 3 3 1016.8 1016.8 0.2
04/02:58am 7.9 - - - - NNW 6 7 3 4 1016.8 1016.8 0.2
04/02:30am 9.3 - - - - W 4 7 2 4 1017.3 1017.3 0.2
04/02:09am 10.5 - - - - S 7 9 4 5 1017.5 1017.5 0.2
04/02:04am 10.3 - - - - SSE 7 9 4 5 1017.5 1017.5 0.2
04/02:00am 10.1 - - - - SSE 7 9 4 5 1017.4 1017.4 0.2
04/01:35am 10.9 - - - - SSE 7 9 4 5 1017.7 1017.7 0.2
04/01:30am 11.7 - - - - SSE 7 9 4 5 1017.7 1017.7 0.2
04/01:00am 12.1 - - - - SSE 6 7 3 4 1018.0 1018.0 0.2
04/12:30am 13.1 - - - - ESE 6 7 3 4 1018.0 1018.0 0.2
04/12:00am 13.7 - - - - CALM 0 4 0 2 1018.5 1018.5 0.2
 
Date/Time
EST
Temp
°C
App
Temp
°C
Dew
Point
Rel
Hum
%
Delta-T
°C
Wind Press
QNH
hPa
Press
MSL
hPa
Rain
since 9 am
mm
Dir
 
Spd
km/h
Gust
km/h
Spd
kts
Gust
kts
03/11:30pm 14.0 - - - - SSW 6 7 3 4 1019.0 1019.0 0.2
03/11:00pm 14.1 - - - - SSW 7 9 4 5 1019.2 1019.2 0.2
03/10:30pm 13.9 - - - - SE 6 6 3 3 1019.4 1019.4 0.2
03/10:00pm 14.1 - - - - SE 6 7 3 4 1019.4 1019.4 0.2
03/09:30pm 14.2 - - - - SE 7 7 4 4 1019.4 1019.4 0.2
03/09:00pm 14.3 - - - - ESE 9 11 5 6 1019.3 1019.3 0.2
03/08:30pm 14.3 - - - - SSE 7 9 4 5 1019.1 1019.1 0.2
03/08:00pm 14.3 - - - - E 7 9 4 5 1019.1 1019.1 0.2
03/07:30pm 14.5 - - - - E 9 11 5 6 1019.1 1019.1 0.2
03/07:00pm 14.5 - - - - ESE 9 9 5 5 1018.9 1018.9 0.2
03/06:30pm 14.7 - - - - ESE 9 11 5 6 1018.5 1018.5 0.2
03/06:00pm 14.9 - - - - SE 11 13 6 7 1018.3 1018.3 0.2
03/05:30pm 14.8 - - - - SE 13 15 7 8 1018.1 1018.1 0.2
03/05:00pm 16.0 - - - - SE 15 17 8 9 1018.0 1018.0 0.2
03/04:30pm 16.7 - - - - ESE 13 17 7 9 1017.9 1017.9 0.2
03/04:00pm 17.3 - - - - E 15 19 8 10 1017.7 1017.7 0.2
03/03:30pm 17.9 - - - - ENE 11 17 6 9 1017.7 1017.7 0.2
03/03:00pm 18.4 - - - - ENE 11 15 6 8 1017.5 1017.5 0.2
03/02:30pm 19.0 - - - - E 11 15 6 8 1017.5 1017.5 0.2
03/02:00pm 19.6 - - - - SE 6 9 3 5 1017.7 1017.7 0.2
03/01:30pm 19.8 - - - - SSE 7 11 4 6 1018.0 1018.0 0.2
03/01:00pm 19.4 - - - - W 7 11 4 6 1018.3 1018.3 0.2
03/12:56pm 19.8 - - - - WNW 7 11 4 6 1018.4 1018.4 0.2
03/12:30pm 19.4 - - - - NW 9 15 5 8 1018.7 1018.7 0.0
03/12:05pm 18.9 - - - - NW 9 15 5 8 1019.1 1019.1 0.0
03/12:00pm 18.5 - - - - WNW 7 11 4 6 1019.2 1019.2 0.0
03/11:30am 18.1 - - - - WNW 9 15 5 8 1019.5 1019.5 0.0
03/11:00am 17.5 - - - - WNW 17 20 9 11 1019.7 1019.7 0.0
03/10:30am 16.8 - - - - W 19 22 10 12 1020.0 1020.0 0.0
03/10:00am 16.0 - - - - WNW 19 26 10 14 1020.1 1020.1 0.0
03/09:30am 15.2 - - - - WNW 15 19 8 10 1020.3 1020.3 0.0
03/09:00am 13.1 - - - - NW 11 13 6 7 1020.4 1020.4 0.0
03/08:30am 11.5 - - - - NW 6 9 3 5 1020.4 1020.4 0.0
03/08:00am 9.9 - - - - WNW 4 6 2 3 1020.1 1020.1 0.0
03/07:30am 7.0 - - - - NNW 4 7 2 4 1019.5 1019.5 0.0
03/07:24am 6.9 - - - - CALM 0 0 0 0 1019.5 1019.5 0.0
03/07:00am 7.0 - - - - CALM 0 0 0 0 1019.1 1019.1 0.0
03/06:54am 7.1 - - - - CALM 0 0 0 0 1019.0 1019.0 0.0
03/06:30am 7.1 - - - - CALM 0 0 0 0 1018.7 1018.7 0.0
03/06:22am 7.0 - - - - CALM 0 4 0 2 1018.7 1018.7 0.0
03/06:00am 7.4 - - - - NW 7 9 4 5 1018.4 1018.4 0.0
03/05:58am 7.5 - - - - NW 7 9 4 5 1018.4 1018.4 0.0
03/05:30am 7.2 - - - - NNE 7 9 4 5 1018.2 1018.2 0.0
03/05:00am 7.2 - - - - NE 6 9 3 5 1018.1 1018.1 0.0
03/04:30am 7.9 - - - - NNW 9 11 5 6 1017.7 1017.7 0.0
03/04:00am 8.2 - - - - NNW 9 11 5 6 1017.5 1017.5 0.0
03/03:30am 9.4 - - - - W 7 11 4 6 1017.2 1017.2 0.0
03/03:00am 10.3 - - - - WNW 11 17 6 9 1017.1 1017.1 0.0
03/02:30am 10.6 - - - - W 13 19 7 10 1017.3 1017.3 0.0
03/02:00am 10.0 - - - - W 13 15 7 8 1017.1 1017.1 0.0
03/01:30am 9.4 - - - - ENE 6 7 3 4 1017.1 1017.1 0.0
03/01:00am 9.8 - - - - WNW 11 15 6 8 1016.7 1016.7 0.0
03/12:30am 9.9 - - - - WNW 13 15 7 8 1016.7 1016.7 0.0
03/12:00am 10.2 - - - - NW 9 11 5 6 1016.9 1016.9 0.0
 
Date/Time
EST
Temp
°C
App
Temp
°C
Dew
Point
Rel
Hum
%
Delta-T
°C
Wind Press
QNH
hPa
Press
MSL
hPa
Rain
since 9 am
mm
Dir
 
Spd
km/h
Gust
km/h
Spd
kts
Gust
kts
02/11:30pm 10.9 - - - - NNW 11 13 6 7 1017.0 1017.0 0.0
02/11:12pm 9.9 - - - - NNW 11 13 6 7 1017.1 1017.1 0.0
02/11:00pm 10.7 - - - - NW 7 11 4 6 1017.1 1017.1 0.0
02/10:43pm 10.0 - - - - WNW 4 9 2 5 1017.1 1017.1 0.0
02/10:30pm 10.2 - - - - WSW 4 6 2 3 1017.2 1017.2 0.0
02/10:00pm 12.1 - - - - SSW 9 17 5 9 1017.1 1017.1 0.0
02/09:30pm 12.1 - - - - NNW 13 17 7 9 1016.7 1016.7 0.0
02/09:00pm 12.0 - - - - NNW 13 17 7 9 1016.8 1016.8 0.0
02/08:56pm 11.3 - - - - NNW 13 17 7 9 1016.8 1016.8 0.0
02/08:37pm 11.1 - - - - NNW 6 9 3 5 1016.8 1016.8 0.0
02/08:30pm 11.6 - - - - CALM 0 0 0 0 1016.8 1016.8 0.0
02/08:15pm 11.0 - - - - WNW 2 7 1 4 1016.9 1016.9 0.0
02/08:00pm 11.5 - - - - SW 6 9 3 5 1016.9 1016.9 0.0
02/07:54pm 11.7 - - - - S 7 9 4 5 1016.9 1016.9 0.0
02/07:30pm 11.4 - - - - CALM 0 0 0 0 1016.9 1016.9 0.0
02/07:00pm 12.9 - - - - WSW 6 7 3 4 1016.9 1016.9 0.0
02/06:30pm 13.7 - - - - SSW 9 11 5 6 1016.4 1016.4 0.0
02/06:00pm 15.2 - - - - ENE 6 7 3 4 1016.2 1016.2 0.0
02/05:30pm 16.8 - - - - NE 11 13 6 7 1016.1 1016.1 0.0
02/05:00pm 17.5 - - - - NNE 7 11 4 6 1016.2 1016.2 0.0
02/04:30pm 17.8 - - - - NE 9 11 5 6 1016.2 1016.2 0.0
02/04:00pm 18.1 - - - - NE 7 9 4 5 1016.2 1016.2 0.0
02/03:30pm 17.7 - - - - E 4 9 2 5 1016.0 1016.0 0.0
02/03:10pm 17.5 - - - - CALM 0 6 0 3 1016.1 1016.1 0.0
02/03:00pm 17.5 - - - - CALM 0 0 0 0 1016.2 1016.2 0.0
02/02:48pm 18.0 - - - - NNW 4 7 2 4 1016.3 1016.3 0.0
02/02:39pm 17.9 - - - - NW 7 9 4 5 1016.3 1016.3 0.0
02/02:30pm 18.4 - - - - NW 9 9 5 5 1016.4 1016.4 0.0
02/02:02pm 16.8 - - - - WNW 6 7 3 4 1016.7 1016.7 0.0
02/02:00pm 16.8 - - - - NW 6 7 3 4 1016.7 1016.7 0.0
02/01:30pm 16.5 - - - - NW 6 9 3 5 1016.9 1016.9 0.0
02/01:00pm 16.0 - - - - SW 6 9 3 5 1017.1 1017.1 0.0
02/12:30pm 15.2 - - - - NW 6 9 3 5 1017.5 1017.5 0.0
02/12:00pm 14.8 - - - - NNE 6 9 3 5 1018.1 1018.1 0.0
02/11:30am 14.2 - - - - CALM 0 0 0 0 1018.3 1018.3 0.0
02/11:00am 14.7 - - - - NNW 2 7 1 4 1018.8 1018.8 0.0
02/10:30am 13.3 - - - - N 2 6 1 3 1019.4 1019.4 0.0
02/10:00am 12.1 - - - - SE 2 7 1 4 1020.0 1020.0 0.0
02/09:30am 10.9 - - - - CALM 0 0 0 0 1020.1 1020.1 0.0
02/09:00am 10.4 - - - - E 6 9 3 5 1020.5 1020.5 0.0
02/08:30am 8.1 - - - - NE 2 9 1 5 1020.6 1020.6 0.0

Other Formats:

Comma delimited format used in spreadsheet applications
http://www.bom.gov.au/fwo/IDV60801/IDV60801.94907.axf

JavaScript Object Notation format (JSON) in row-major order
http://www.bom.gov.au/fwo/IDV60801/IDV60801.94907.json